Delta Virtual Airport Information Service

Dublin Airport

ICAO: EIDW Country: Ireland
Latitude: 53.4214 Longitude: -6.27
Latest Arrival : DAL753191 (LFPG-EIDW) Latest Departure : DAL753191 (EIDW-EHAM)


WX CaptureLIVE
Data provided by noaa.gov | Fetched at 07:48:54

METAR : EIDW 301330Z 26017KT 9999 FEW006 BKN009 BKN012 10/09 Q1022 TEMPO 4000

TAF : EIDW 301100Z 3012/0112 25014KT 9000 -RA BKN010 BKN040 TEMPO 3012/3016 27017G27KT 4000 -RADZ BKN007 PROB30 TEMPO 3012/3016 2000 BR BKN004 BECMG 3015/3017 30008KT FEW015 BKN035 PROB40 TEMPO 3016/3019 BKN010 BECMG 0107/0109 26008KT


Runway Data for EIDW
Data provided by openaviationdata.com

Runway ID Mag Var Hdg Length Elevation Surface ILS Freq ILS Id ILS Slope
10 -5 100° 8842 ft 242 ft Asphalt 108.9 IDE 3
16 -5 162° 6824 ft 242 ft Asphalt 111.5 IAC 3
28 -5 280° 8842 ft 242 ft Asphalt 111.35 IDW 3
34 -5 342° 6824 ft 242 ft Asphalt -- -- --

Dublin Airport, Ireland
Use only for reference purposes



Not for navigational purposes.